Time;durP1;ratioP1;P1;durP2;ratioP2;P2;SDS_P1;SDS_P2;PMS_P1;PMS_P2;Temp;Humidity;BMP_temperature;BMP_pressure;BME280_temperature;BME280_humidity;BME280_pressure;Samples;Min_cycle;Max_cycle;Signal;HPM_P1;HPM_P2
2023/05/22 00:01:18;;;;;;;;;;;;;;;19.37;69.04;96856.28;627674;226;62661;-59
2023/05/22 00:03:45;;;;;;;;;;;;;;;19.37;69.37;96856.28;627613;226;65398;-59
2023/05/22 00:06:13;;;;;;;;;;;;;;;19.37;69.38;96861.61;627735;226;66553;-59
2023/05/22 00:08:41;;;;;;;;;;;;;;;19.37;69.30;96858.12;627552;226;64913;-59
2023/05/22 00:11:08;;;;;;;;;;;;;;;19.38;70.19;96857.07;627535;226;68317;-59
2023/05/22 00:13:36;;;;;;;;;;;;;;;19.37;70.29;96853.61;627215;226;68466;-59
2023/05/22 00:16:03;;;;;;;;;;;;;;;19.37;69.52;96856.28;626910;226;64916;-59
2023/05/22 00:18:31;;;;;;;;;;;;;;;19.36;68.92;96848.53;626994;226;68483;-59
2023/05/22 00:20:59;;;;;;;;;;;;;;;19.35;68.99;96850.41;626821;226;67304;-59
2023/05/22 00:23:31;;;;;;;;;;;;;;;19.36;69.61;96859.19;627079;225;63089;-59
2023/05/22 00:25:55;;;;;;;;;;;;;;;19.37;69.97;96850.12;626631;226;66262;-59
2023/05/22 00:28:23;;;;;;;;;;;;;;;19.36;69.33;96856.53;626925;225;68451;-59
2023/05/22 00:30:52;;;;;;;;;;;;;;;19.37;69.90;96855.45;626822;226;65669;-59
2023/05/22 00:33:19;;;;;;;;;;;;;;;19.35;69.49;96847.73;626866;226;68723;-59
2023/05/22 00:35:47;;;;;;;;;;;;;;;19.35;69.47;96849.61;626928;226;66694;-59
2023/05/22 00:38:29;;;;;;;;;;;;;;;19.35;69.06;96853.06;626820;226;63913;-59
2023/05/22 00:40:56;;;;;;;;;;;;;;;19.36;69.85;96849.33;626775;226;66781;-59
2023/05/22 00:43:24;;;;;;;;;;;;;;;19.35;69.27;96855.73;626820;226;66503;-59
2023/05/22 00:45:53;;;;;;;;;;;;;;;19.36;69.40;96851.20;627005;226;64983;-59
2023/05/22 00:48:24;;;;;;;;;;;;;;;19.35;69.01;96849.61;626914;226;66554;-59
2023/05/22 00:50:54;;;;;;;;;;;;;;;19.34;68.98;96848.78;626850;226;68693;-59
2023/05/22 00:53:23;;;;;;;;;;;;;;;19.35;69.33;96852.27;626938;226;62743;-59
2023/05/22 00:55:52;;;;;;;;;;;;;;;19.35;68.95;96852.27;626809;225;68510;-59
2023/05/22 00:58:20;;;;;;;;;;;;;;;19.34;69.55;96850.66;626946;226;68849;-59
2023/05/22 01:00:48;;;;;;;;;;;;;;;19.34;69.58;96847.98;626977;226;65368;-59
2023/05/22 01:03:16;;;;;;;;;;;;;;;19.33;69.72;96844.53;626892;226;69514;-59
2023/05/22 01:05:44;;;;;;;;;;;;;;;19.34;69.13;96851.45;626959;225;66438;-59
2023/05/22 01:08:12;;;;;;;;;;;;;;;19.35;69.86;96849.61;626857;226;66022;-60
2023/05/22 01:10:40;;;;;;;;;;;;;;;19.35;69.80;96857.60;626952;226;68790;-59
2023/05/22 01:13:15;;;;;;;;;;;;;;;19.33;69.97;96855.19;626967;225;68713;-60
2023/05/22 01:15:49;;;;;;;;;;;;;;;19.33;69.65;96857.06;626823;225;64995;-59
2023/05/22 01:18:19;;;;;;;;;;;;;;;19.34;69.65;96858.65;626921;226;66542;-59
2023/05/22 01:20:48;;;;;;;;;;;;;;;19.33;69.82;96862.39;626966;226;68935;-59
2023/05/22 01:23:17;;;;;;;;;;;;;;;19.33;69.12;96859.72;626870;226;66374;-59
2023/05/22 01:25:51;;;;;;;;;;;;;;;19.32;68.93;96852.80;626681;226;66366;-59
2023/05/22 01:28:21;;;;;;;;;;;;;;;19.32;68.72;96844.81;627000;226;68552;-59
2023/05/22 01:30:56;;;;;;;;;;;;;;;19.32;69.41;96850.14;626867;226;63096;-60
2023/05/22 01:33:29;;;;;;;;;;;;;;;19.32;69.21;96842.94;623597;226;66737;-59
2023/05/22 01:35:54;;;;;;;;;;;;;;;19.31;69.04;96843.98;626627;226;68865;-60
2023/05/22 01:38:22;;;;;;;;;;;;;;;19.32;69.33;96840.27;626855;226;62944;-60
2023/05/22 01:40:50;;;;;;;;;;;;;;;19.32;69.76;96842.14;626882;226;68881;-60
2023/05/22 01:43:18;;;;;;;;;;;;;;;19.32;69.85;96837.61;626984;226;68444;-60
2023/05/22 01:45:45;;;;;;;;;;;;;;;19.31;69.93;96838.66;626845;226;66245;-59
2023/05/22 01:48:13;;;;;;;;;;;;;;;19.30;69.93;96835.20;626901;225;68620;-59
2023/05/22 01:50:40;;;;;;;;;;;;;;;19.31;69.72;96835.99;626829;226;68793;-59
2023/05/22 01:53:26;;;;;;;;;;;;;;;19.31;69.77;96835.99;626952;226;62455;-59
2023/05/22 01:55:55;;;;;;;;;;;;;;;19.30;69.17;96840.53;626862;226;68276;-59
2023/05/22 01:58:31;;;;;;;;;;;;;;;19.29;68.69;96844.27;626825;226;66307;-58
2023/05/22 02:01:00;;;;;;;;;;;;;;;19.31;69.78;96843.98;617277;226;62963;-58
2023/05/22 02:03:29;;;;;;;;;;;;;;;19.30;69.37;96840.53;626869;226;68760;-58
2023/05/22 02:05:58;;;;;;;;;;;;;;;19.28;69.27;96842.64;626951;226;69559;-59
2023/05/22 02:08:27;;;;;;;;;;;;;;;19.30;69.66;96840.53;626854;226;65872;-59
2023/05/22 02:10:55;;;;;;;;;;;;;;;19.30;69.56;96840.53;626977;226;65997;-58
2023/05/22 02:13:23;;;;;;;;;;;;;;;19.30;70.01;96848.52;626800;226;68862;-59
2023/05/22 02:15:51;;;;;;;;;;;;;;;19.29;69.65;96849.59;626779;226;65036;-59
2023/05/22 02:18:18;;;;;;;;;;;;;;;19.29;69.99;96848.80;627025;225;68875;-59
2023/05/22 02:20:46;;;;;;;;;;;;;;;19.29;69.36;96846.14;626901;226;69642;-59
2023/05/22 02:23:13;;;;;;;;;;;;;;;19.28;69.66;96839.98;626896;226;65810;-59
2023/05/22 02:25:41;;;;;;;;;;;;;;;19.29;69.61;96840.80;626939;226;67335;-59
2023/05/22 02:28:10;;;;;;;;;;;;;;;19.28;69.69;96839.19;626808;226;69025;-59
2023/05/22 02:30:37;;;;;;;;;;;;;;;19.28;69.70;96837.32;626908;225;64989;-59
2023/05/22 02:33:05;;;;;;;;;;;;;;;19.28;69.88;96839.19;626851;226;68814;-59
2023/05/22 02:35:32;;;;;;;;;;;;;;;19.28;69.54;96836.52;626991;225;69426;-59
2023/05/22 02:38:02;;;;;;;;;;;;;;;19.27;69.61;96838.39;626805;226;62478;-59
2023/05/22 02:40:29;;;;;;;;;;;;;;;19.27;69.39;96841.05;626944;226;68741;-59
2023/05/22 02:42:57;;;;;;;;;;;;;;;19.27;69.71;96835.73;626854;226;66299;-58
2023/05/22 02:45:26;;;;;;;;;;;;;;;19.27;68.76;96833.06;626804;226;65659;-58
2023/05/22 02:47:53;;;;;;;;;;;;;;;19.27;69.50;96841.05;626941;226;68841;-59
2023/05/22 02:50:21;;;;;;;;;;;;;;;19.27;69.10;96835.73;626983;225;66051;-59
2023/05/22 02:52:49;;;;;;;;;;;;;;;19.27;68.80;96829.61;626965;226;65034;-58
2023/05/22 02:55:16;;;;;;;;;;;;;;;19.26;69.32;96828.81;626961;226;68747;-59
2023/05/22 02:57:44;;;;;;;;;;;;;;;19.27;69.10;96833.06;627035;225;66111;-59
2023/05/22 03:00:12;;;;;;;;;;;;;;;19.27;69.49;96826.94;626864;226;62755;-59
2023/05/22 03:02:39;;;;;;;;;;;;;;;19.27;69.04;96832.27;627030;226;68802;-59
2023/05/22 03:05:09;;;;;;;;;;;;;;;19.27;69.55;96835.73;626802;226;69804;-59
2023/05/22 03:07:36;;;;;;;;;;;;;;;19.27;69.36;96833.06;626900;226;62718;-60
2023/05/22 03:10:04;;;;;;;;;;;;;;;19.27;69.78;96834.94;626398;225;68779;-59
2023/05/22 03:12:32;;;;;;;;;;;;;;;19.27;69.80;96830.41;626835;226;68660;-60
2023/05/22 03:14:59;;;;;;;;;;;;;;;19.25;69.60;96829.86;627677;226;62981;-59
2023/05/22 03:17:27;;;;;;;;;;;;;;;19.26;70.18;96835.98;627568;226;69274;-59
2023/05/22 03:19:54;;;;;;;;;;;;;;;19.26;70.10;96830.66;627630;226;68993;-59
2023/05/22 03:22:22;;;;;;;;;;;;;;;19.25;69.54;96824.53;627625;226;65148;-59
2023/05/22 03:24:49;;;;;;;;;;;;;;;19.25;69.37;96829.86;627618;226;69112;-59
2023/05/22 03:27:18;;;;;;;;;;;;;;;19.26;69.69;96825.32;627664;226;68659;-59
2023/05/22 03:29:46;;;;;;;;;;;;;;;19.25;69.35;96829.86;627567;226;65054;-59
2023/05/22 03:32:14;;;;;;;;;;;;;;;19.26;69.36;96833.31;627617;226;68945;-59
2023/05/22 03:34:42;;;;;;;;;;;;;;;19.25;69.48;96826.40;627622;226;68686;-59
2023/05/22 03:37:10;;;;;;;;;;;;;;;19.25;69.25;96827.19;625624;226;64472;-59
2023/05/22 03:39:38;;;;;;;;;;;;;;;19.24;68.92;96830.93;627033;226;67275;-59
2023/05/22 03:42:12;;;;;;;;;;;;;;;19.26;69.90;96833.31;626587;226;49610;-60
2023/05/22 03:44:40;;;;;;;;;;;;;;;19.23;69.27;96826.68;626971;226;63689;-60
2023/05/22 03:47:08;;;;;;;;;;;;;;;19.25;69.10;96826.40;627626;226;68785;-59
2023/05/22 03:49:35;;;;;;;;;;;;;;;19.23;68.74;96823.19;627583;226;66273;-60
2023/05/22 03:52:04;;;;;;;;;;;;;;;19.25;69.11;96826.40;622493;226;66518;-60
2023/05/22 03:54:32;;;;;;;;;;;;;;;19.24;69.01;96827.47;627649;226;68780;-60
2023/05/22 03:57:00;;;;;;;;;;;;;;;19.24;69.26;96833.59;627563;226;68875;-60
2023/05/22 03:59:28;;;;;;;;;;;;;;;19.24;69.61;96827.47;627530;226;66149;-60
2023/05/22 04:02:01;;;;;;;;;;;;;;;19.24;69.19;96835.47;627466;226;68786;-59
2023/05/22 04:04:25;;;;;;;;;;;;;;;19.24;69.38;96838.13;627294;225;68530;-60
2023/05/22 04:06:56;;;;;;;;;;;;;;;19.23;69.05;96834.67;627586;226;65043;-59
2023/05/22 04:09:22;;;;;;;;;;;;;;;19.23;68.64;96837.34;627558;225;66275;-60
2023/05/22 04:11:52;;;;;;;;;;;;;;;19.23;68.66;96840.00;626819;226;68503;-60
2023/05/22 04:14:19;;;;;;;;;;;;;;;19.23;68.39;96836.51;626868;226;62875;-60
2023/05/22 04:16:47;;;;;;;;;;;;;;;19.22;68.16;96840.25;627625;226;69397;-60
2023/05/22 04:19:15;;;;;;;;;;;;;;;19.22;68.44;96834.92;627671;226;68636;-60
2023/05/22 04:21:44;;;;;;;;;;;;;;;19.23;67.93;96833.84;627640;226;65273;-60
2023/05/22 04:24:11;;;;;;;;;;;;;;;19.22;68.93;96833.05;627624;226;68590;-61
2023/05/22 04:26:39;;;;;;;;;;;;;;;19.22;68.65;96838.37;627600;226;68621;-60
2023/05/22 04:29:09;;;;;;;;;;;;;;;19.22;68.83;96838.37;627671;226;65331;-61
2023/05/22 04:31:36;;;;;;;;;;;;;;;19.22;69.12;96838.37;627700;226;69483;-60
2023/05/22 04:34:05;;;;;;;;;;;;;;;19.21;69.32;96839.45;627658;226;67192;-60
2023/05/22 04:36:32;;;;;;;;;;;;;;;19.22;69.22;96838.37;627692;226;65671;-60
2023/05/22 04:39:01;;;;;;;;;;;;;;;19.22;69.32;96838.37;627626;226;66879;-60
2023/05/22 04:41:29;;;;;;;;;;;;;;;19.22;69.11;96835.72;627636;226;68547;-60
2023/05/22 04:43:57;;;;;;;;;;;;;;;19.22;69.39;96835.72;627615;226;64990;-61
2023/05/22 04:46:27;;;;;;;;;;;;;;;19.21;68.94;96834.12;627697;226;50249;-60
2023/05/22 04:48:55;;;;;;;;;;;;;;;19.21;69.33;96834.12;622565;226;67807;-60
2023/05/22 04:51:22;;;;;;;;;;;;;;;19.21;69.09;96833.33;627628;226;63039;-60
2023/05/22 04:53:50;;;;;;;;;;;;;;;19.21;69.30;96831.46;627627;224;68766;-60
2023/05/22 04:56:18;;;;;;;;;;;;;;;19.21;69.57;96826.13;627637;226;66633;-61
2023/05/22 04:58:47;;;;;;;;;;;;;;;19.20;69.62;96824.52;627649;226;62882;-60
2023/05/22 05:01:16;;;;;;;;;;;;;;;19.20;69.28;96829.84;627678;226;68850;-60
2023/05/22 05:03:44;;;;;;;;;;;;;;;19.21;69.39;96823.47;627607;226;68705;-60
2023/05/22 05:06:15;;;;;;;;;;;;;;;19.20;69.33;96829.05;627653;226;62902;-60
2023/05/22 05:08:46;;;;;;;;;;;;;;;19.21;69.58;96822.67;627622;226;68738;-60
2023/05/22 05:11:14;;;;;;;;;;;;;;;19.20;69.77;96818.39;625573;226;68772;-60
2023/05/22 05:13:42;;;;;;;;;;;;;;;19.20;69.94;96819.19;627285;226;63696;-60
2023/05/22 05:16:10;;;;;;;;;;;;;;;19.20;69.47;96821.05;625388;226;69589;-60
2023/05/22 05:18:38;;;;;;;;;;;;;;;19.20;69.24;96823.72;626969;226;66522;-60
2023/05/22 05:21:06;;;;;;;;;;;;;;;19.19;68.91;96817.59;626973;226;65805;-60
2023/05/22 05:23:33;;;;;;;;;;;;;;;19.20;69.32;96816.52;626968;226;68770;-60
2023/05/22 05:26:01;;;;;;;;;;;;;;;19.19;69.18;96814.14;626986;226;68392;-60
2023/05/22 05:28:29;;;;;;;;;;;;;;;19.20;69.27;96818.39;627033;226;65069;-60
2023/05/22 05:30:56;;;;;;;;;;;;;;;19.20;68.82;96821.05;626924;226;69346;-60
2023/05/22 05:33:26;;;;;;;;;;;;;;;19.19;68.79;96817.59;624410;226;48773;-61
2023/05/22 05:35:58;;;;;;;;;;;;;;;19.19;68.82;96814.93;626813;226;46905;-60
2023/05/22 05:38:26;;;;;;;;;;;;;;;19.19;69.01;96812.27;626908;226;68884;-60
2023/05/22 05:40:55;;;;;;;;;;;;;;;19.19;69.41;96814.14;626994;226;69037;-60
2023/05/22 05:43:24;;;;;;;;;;;;;;;19.19;68.92;96817.59;626915;226;64921;-60
2023/05/22 05:45:53;;;;;;;;;;;;;;;19.19;68.93;96814.93;626997;226;68738;-59
2023/05/22 05:48:20;;;;;;;;;;;;;;;19.19;69.45;96822.13;626943;226;68928;-59
2023/05/22 05:50:48;;;;;;;;;;;;;;;19.20;69.76;96824.52;627003;226;65657;-59
2023/05/22 05:53:17;;;;;;;;;;;;;;;19.18;69.26;96821.34;626953;226;69153;-58
2023/05/22 05:55:47;;;;;;;;;;;;;;;19.19;69.57;96819.47;626732;226;45511;-60
2023/05/22 05:58:14;;;;;;;;;;;;;;;19.18;68.63;96816.01;626935;226;66016;-58
2023/05/22 06:00:56;;;;;;;;;;;;;;;19.21;70.28;96817.34;622754;226;48694;-58
2023/05/22 06:03:24;;;;;;;;;;;;;;;19.19;70.22;96822.92;626985;226;69431;-58
2023/05/22 06:05:53;;;;;;;;;;;;;;;19.18;67.28;96816.01;626735;226;42526;-59
2023/05/22 06:08:23;;;;;;;;;;;;;;;19.19;67.93;96822.92;625962;226;50291;-58
2023/05/22 06:10:51;;;;;;;;;;;;;;;19.17;66.64;96819.72;626963;226;68680;-58
2023/05/22 06:13:32;;;;;;;;;;;;;;;19.18;65.26;96825.84;627284;226;42377;-58
2023/05/22 06:16:00;;;;;;;;;;;;;;;19.19;66.75;96820.27;627641;226;67445;-59
2023/05/22 06:18:28;;;;;;;;;;;;;;;19.23;63.54;96824.02;627583;226;69398;-58
2023/05/22 06:20:57;;;;;;;;;;;;;;;19.26;63.06;96822.66;627575;226;62455;-58
2023/05/22 06:23:25;;;;;;;;;;;;;;;19.29;67.15;96822.16;627671;226;68720;-58
2023/05/22 06:25:54;;;;;;;;;;;;;;;19.29;67.56;96822.16;627629;226;68553;-59
2023/05/22 06:28:22;;;;;;;;;;;;;;;19.32;67.99;96831.48;627616;226;64879;-59
2023/05/22 06:30:49;;;;;;;;;;;;;;;19.32;68.20;96831.48;627626;226;66276;-59
2023/05/22 06:33:18;;;;;;;;;;;;;;;19.34;68.29;96832.00;624158;226;68395;-58
2023/05/22 06:35:46;;;;;;;;;;;;;;;19.34;68.44;96824.01;624183;225;65139;-59
2023/05/22 06:38:14;;;;;;;;;;;;;;;19.33;68.76;96817.09;630200;225;68876;-59
2023/05/22 06:40:43;;;;;;;;;;;;;;;19.30;68.58;96816.55;623306;225;69553;-58
2023/05/22 06:43:12;;;;;;;;;;;;;;;19.28;68.59;96812.55;630146;224;43894;-58
2023/05/22 06:45:41;;;;;;;;;;;;;;;19.27;69.18;96825.07;629915;225;48527;-58
2023/05/22 06:48:16;;;;;;;;;;;;;;;19.27;69.41;96813.63;629547;225;51474;-58
2023/05/22 06:50:49;;;;;;;;;;;;;;;19.26;69.41;96817.33;622947;225;46533;-57
2023/05/22 06:53:17;;;;;;;;;;;;;;;19.25;69.82;96810.41;623421;226;66038;-58
2023/05/22 06:55:44;;;;;;;;;;;;;;;19.25;69.26;96805.08;624391;226;66468;-58
2023/05/22 06:58:13;;;;;;;;;;;;;;;19.25;69.63;96808.55;623725;226;43585;-58
2023/05/22 07:00:41;;;;;;;;;;;;;;;19.25;69.97;96816.53;623687;227;66634;-58
2023/05/22 07:03:10;;;;;;;;;;;;;;;19.25;69.94;96818.41;623766;225;47508;-58
2023/05/22 07:05:40;;;;;;;;;;;;;;;19.24;70.01;96814.95;624887;226;41868;-59
2023/05/22 07:08:08;;;;;;;;;;;;;;;19.24;69.91;96808.83;625047;226;68509;-58
2023/05/22 07:10:35;;;;;;;;;;;;;;;19.24;69.75;96814.16;623648;226;68670;-58
2023/05/22 07:13:03;;;;;;;;;;;;;;;19.23;70.20;96805.36;624046;226;62945;-60
2023/05/22 07:15:31;;;;;;;;;;;;;;;19.28;65.59;96809.88;625853;226;69429;-59
2023/05/22 07:18:00;;;;;;;;;;;;;;;19.32;63.34;96810.17;625740;226;69055;-59
2023/05/22 07:20:28;;;;;;;;;;;;;;;19.30;62.73;96805.89;625822;226;62722;-58
2023/05/22 07:23:03;;;;;;;;;;;;;;;19.32;64.74;96799.52;625695;226;45797;-59
2023/05/22 07:25:31;;;;;;;;;;;;;;;19.32;67.72;96802.18;625706;226;69107;-59
2023/05/22 07:28:00;;;;;;;;;;;;;;;19.28;68.77;96794.69;625792;226;65109;-59
2023/05/22 07:30:28;;;;;;;;;;;;;;;19.28;67.97;96807.22;625872;226;69431;-59
2023/05/22 07:32:56;;;;;;;;;;;;;;;19.26;66.60;96807.50;625761;226;69508;-58
2023/05/22 07:35:23;;;;;;;;;;;;;;;19.28;67.07;96807.22;621244;226;65750;-59
2023/05/22 07:37:51;;;;;;;;;;;;;;;19.28;67.22;96805.34;625749;226;66467;-59
2023/05/22 07:40:18;;;;;;;;;;;;;;;19.27;67.35;96809.09;627202;224;66706;-59
2023/05/22 07:42:46;;;;;;;;;;;;;;;19.28;68.26;96804.55;626096;224;65755;-59
2023/05/22 07:45:14;;;;;;;;;;;;;;;19.28;68.09;96809.88;625137;227;68754;-59
2023/05/22 07:47:41;;;;;;;;;;;;;;;19.28;67.58;96804.55;625100;227;66654;-59
2023/05/22 07:50:10;;;;;;;;;;;;;;;19.28;67.94;96799.22;626119;224;65139;-59
2023/05/22 07:52:39;;;;;;;;;;;;;;;19.27;67.15;96806.42;625068;227;66557;-59
2023/05/22 07:55:07;;;;;;;;;;;;;;;19.28;67.44;96805.34;625215;227;67178;-59
2023/05/22 07:57:36;;;;;;;;;;;;;;;19.28;67.05;96797.35;625146;227;66111;-59
2023/05/22 08:00:12;;;;;;;;;;;;;;;19.27;66.83;96798.43;624890;227;46757;-60
2023/05/22 08:02:37;;;;;;;;;;;;;;;19.28;67.50;96791.23;624914;227;47615;-59
2023/05/22 08:05:05;;;;;;;;;;;;;;;19.28;67.76;96804.55;625174;227;65057;-60
2023/05/22 08:07:32;;;;;;;;;;;;;;;19.26;67.17;96796.84;625115;227;68737;-59
2023/05/22 08:10:02;;;;;;;;;;;;;;;19.27;67.71;96803.75;625204;227;66499;-59
2023/05/22 08:12:29;;;;;;;;;;;;;;;19.28;67.68;96804.55;624793;227;64882;-60
2023/05/22 08:14:57;;;;;;;;;;;;;;;19.27;67.48;96803.75;617403;228;68740;-61
2023/05/22 08:17:24;;;;;;;;;;;;;;;19.28;67.07;96805.34;616987;230;68277;-60
2023/05/22 08:19:53;;;;;;;;;;;;;;;19.27;65.72;96801.09;616399;230;65290;-60
2023/05/22 08:22:20;;;;;;;;;;;;;;;19.34;64.74;96802.69;617121;229;67842;-59
2023/05/22 08:24:48;;;;;;;;;;;;;;;19.33;62.88;96806.44;616941;230;68390;-59
2023/05/22 08:27:15;;;;;;;;;;;;;;;19.33;67.46;96809.89;616939;229;64963;-59
2023/05/22 08:29:43;;;;;;;;;;;;;;;19.32;68.26;96810.97;616894;230;68708;-59
2023/05/22 08:32:10;;;;;;;;;;;;;;;19.31;68.97;96809.34;616855;229;68281;-60
2023/05/22 08:34:39;;;;;;;;;;;;;;;19.29;69.40;96806.17;616503;229;62657;-59
2023/05/22 08:37:08;;;;;;;;;;;;;;;19.28;69.50;96810.67;617019;226;68471;-60
2023/05/22 08:39:35;;;;;;;;;;;;;;;19.27;69.60;96822.41;619694;226;66293;-59
2023/05/22 08:42:04;;;;;;;;;;;;;;;19.27;69.77;96822.41;616546;229;62724;-59
2023/05/22 08:44:31;;;;;;;;;;;;;;;19.27;69.59;96814.41;617019;230;68773;-61
2023/05/22 08:47:02;;;;;;;;;;;;;;;19.27;69.68;96810.95;617068;229;68558;-59
2023/05/22 08:49:30;;;;;;;;;;;;;;;19.26;69.65;96817.33;616869;229;63196;-59
2023/05/22 08:51:59;;;;;;;;;;;;;;;19.26;67.43;96820.81;615982;230;68605;-59
2023/05/22 08:54:28;;;;;;;;;;;;;;;19.27;66.66;96808.30;616106;229;68367;-59
2023/05/22 08:56:56;;;;;;;;;;;;;;;19.29;66.36;96811.50;620562;226;65058;-59
2023/05/22 08:59:24;;;;;;;;;;;;;;;19.29;63.95;96809.63;620910;226;68848;-60
2023/05/22 09:01:52;;;;;;;;;;;;;;;19.30;65.69;96813.09;622822;227;68946;-58
2023/05/22 09:04:22;;;;;;;;;;;;;;;19.32;66.23;96813.63;622810;227;65263;-61
2023/05/22 09:06:50;;;;;;;;;;;;;;;19.34;64.91;96813.35;622808;227;68851;-59
2023/05/22 09:09:17;;;;;;;;;;;;;;;19.34;69.14;96808.81;623039;227;69255;-59
2023/05/22 09:11:45;;;;;;;;;;;;;;;19.33;69.00;96812.55;622702;227;62834;-59
2023/05/22 09:14:14;;;;;;;;;;;;;;;19.32;69.27;96808.30;620096;227;68789;-59
2023/05/22 09:16:49;;;;;;;;;;;;;;;19.31;69.42;96798.69;619820;229;68953;-59
2023/05/22 09:21:55;;;;;;;;;;;;;;;19.28;64.81;96804.55;600113;234;39446;-58
2023/05/22 09:24:23;;;;;;;;;;;;;;;19.35;65.28;96801.65;599459;236;68717;-61
2023/05/22 09:26:51;;;;;;;;;;;;;;;19.39;66.84;96800.83;599735;236;65258;-59
2023/05/22 09:29:19;;;;;;;;;;;;;;;19.40;66.76;96801.66;602691;235;68777;-59
2023/05/22 09:31:47;;;;;;;;;;;;;;;19.39;63.09;96800.03;603100;234;66919;-60
2023/05/22 09:34:16;;;;;;;;;;;;;;;19.39;68.60;96795.50;604245;234;62929;-59
2023/05/22 09:36:44;;;;;;;;;;;;;;;19.36;69.26;96790.70;604128;234;68687;-59
2023/05/22 09:39:11;;;;;;;;;;;;;;;19.33;69.44;96790.44;603895;234;69189;-59
2023/05/22 09:41:39;;;;;;;;;;;;;;;19.32;69.65;96791.52;604251;234;64880;-59
2023/05/22 09:44:09;;;;;;;;;;;;;;;19.33;64.45;96796.56;604229;234;68758;-59
2023/05/22 09:46:43;;;;;;;;;;;;;;;19.34;63.33;96789.37;598739;236;68607;-59
2023/05/22 09:49:11;;;;;;;;;;;;;;;19.36;64.83;96784.58;599707;236;64950;-59
2023/05/22 09:51:41;;;;;;;;;;;;;;;19.35;67.80;96789.12;599817;236;68697;-59
2023/05/22 09:54:10;;;;;;;;;;;;;;;19.34;67.72;96784.04;601725;233;68855;-60
2023/05/22 09:56:40;;;;;;;;;;;;;;;19.33;65.65;96782.45;607708;233;65382;-60
2023/05/22 09:59:08;;;;;;;;;;;;;;;19.33;66.61;96780.58;607509;233;68420;-60
2023/05/22 10:01:36;;;;;;;;;;;;;;;19.33;68.19;96791.23;608513;233;66542;-61
2023/05/22 10:04:04;;;;;;;;;;;;;;;19.33;68.39;96785.12;609042;233;62702;-63
2023/05/22 10:06:33;;;;;;;;;;;;;;;19.32;68.12;96781.66;609097;233;66085;-61
2023/05/22 10:09:05;;;;;;;;;;;;;;;19.31;68.40;96780.04;609124;233;68508;-62
2023/05/22 10:11:33;;;;;;;;;;;;;;;19.30;67.77;96784.58;609127;233;65776;-62
2023/05/22 10:14:04;;;;;;;;;;;;;;;19.30;67.74;96779.24;604143;233;49833;-61
2023/05/22 10:16:35;;;;;;;;;;;;;;;19.32;67.56;96775.53;603532;233;68763;-61
2023/05/22 10:19:05;;;;;;;;;;;;;;;19.30;67.29;96773.91;603919;233;47647;-62
2023/05/22 10:21:35;;;;;;;;;;;;;;;19.29;66.72;96769.66;607027;233;68773;-61
2023/05/22 10:24:04;;;;;;;;;;;;;;;19.32;66.66;96767.54;606235;234;68299;-62
2023/05/22 10:26:32;;;;;;;;;;;;;;;19.31;66.70;96766.72;606166;234;65457;-60
2023/05/22 10:29:04;;;;;;;;;;;;;;;19.32;63.79;96763.00;606159;234;68804;-62
2023/05/22 10:31:33;;;;;;;;;;;;;;;19.33;66.74;96759.27;606098;233;69308;-62
2023/05/22 10:34:11;;;;;;;;;;;;;;;19.33;65.93;96758.47;594689;234;45008;-61
2023/05/22 10:36:42;;;;;;;;;;;;;;;19.33;67.55;96767.26;595578;236;68756;-62
2023/05/22 10:39:30;;;;;;;;;;;;;;;19.32;67.74;96757.67;602841;233;68577;-62
2023/05/22 10:41:57;;;;;;;;;;;;;;;19.31;67.31;96758.72;606100;233;62655;-61
2023/05/22 10:44:25;;;;;;;;;;;;;;;19.31;66.77;96756.06;606154;234;66334;-61
2023/05/22 10:46:52;;;;;;;;;;;;;;;19.32;66.46;96756.88;606159;234;68496;-61
2023/05/22 10:49:25;;;;;;;;;;;;;;;19.32;66.00;96747.02;601887;234;41535;-64
2023/05/22 10:51:54;;;;;;;;;;;;;;;19.31;65.60;96748.06;595219;237;66049;-62
2023/05/22 10:54:23;;;;;;;;;;;;;;;19.34;63.12;96744.07;595233;238;68576;-60
2023/05/22 10:56:52;;;;;;;;;;;;;;;19.35;66.01;96737.70;599968;235;65227;-60
2023/05/22 10:59:21;;;;;;;;;;;;;;;19.33;68.57;96731.83;599180;235;68852;-60
2023/05/22 11:01:50;;;;;;;;;;;;;;;19.31;68.64;96734.74;599671;235;66493;-62
2023/05/22 11:04:21;;;;;;;;;;;;;;;19.30;69.01;96728.63;600176;235;42407;-61
2023/05/22 11:06:55;;;;;;;;;;;;;;;19.29;68.24;96718.25;599316;235;44956;-62
2023/05/22 11:09:30;;;;;;;;;;;;;;;19.29;67.97;96718.25;599240;235;68606;-62
2023/05/22 11:12:19;;;;;;;;;;;;;;;19.29;67.57;96723.58;600026;236;64971;-61
2023/05/22 11:14:58;;;;;;;;;;;;;;;19.29;67.79;96715.58;600029;236;68605;-61
2023/05/22 11:17:29;;;;;;;;;;;;;;;19.29;66.55;96718.25;600008;236;68962;-61
2023/05/22 11:19:58;;;;;;;;;;;;;;;19.30;65.81;96717.17;600355;235;63046;-61
2023/05/22 11:22:36;;;;;;;;;;;;;;;19.28;66.67;96706.77;602246;235;68617;-60
2023/05/22 11:25:05;;;;;;;;;;;;;;;19.29;66.81;96699.59;602514;235;66640;-60
2023/05/22 11:27:35;;;;;;;;;;;;;;;19.29;64.77;96705.72;602321;235;63859;-60
2023/05/22 11:30:03;;;;;;;;;;;;;;;19.31;63.91;96697.44;602524;235;68719;-65
2023/05/22 11:32:31;;;;;;;;;;;;;;;19.33;64.09;96694.52;602449;235;66611;-61
2023/05/22 11:34:58;;;;;;;;;;;;;;;19.33;63.59;96689.98;602486;235;61878;-61
2023/05/22 11:37:26;;;;;;;;;;;;;;;19.35;63.63;96697.73;602494;235;66394;-62
2023/05/22 11:39:58;;;;;;;;;;;;;;;19.35;64.36;96698.52;602728;235;66251;-60
2023/05/22 11:42:25;;;;;;;;;;;;;;;19.35;63.99;96703.85;602621;235;66212;-60
2023/05/22 11:44:53;;;;;;;;;;;;;;;19.36;63.88;96704.64;602601;235;68778;-60
2023/05/22 11:47:22;;;;;;;;;;;;;;;19.35;63.72;96703.85;602432;235;69050;-65
2023/05/22 11:49:54;;;;;;;;;;;;;;;19.36;63.92;96712.64;602329;235;45009;-66
2023/05/22 11:52:21;;;;;;;;;;;;;;;19.37;63.75;96708.89;602634;235;66440;-62
2023/05/22 11:54:49;;;;;;;;;;;;;;;19.38;63.55;96707.84;602421;235;66571;-62
2023/05/22 11:57:16;;;;;;;;;;;;;;;19.38;64.04;96716.64;602605;235;64838;-68
2023/05/22 11:59:45;;;;;;;;;;;;;;;19.39;63.73;96717.43;602580;235;68890;-62
2023/05/22 12:02:13;;;;;;;;;;;;;;;19.39;63.86;96714.77;602568;235;68655;-62
2023/05/22 12:04:41;;;;;;;;;;;;;;;19.39;63.93;96720.09;602520;235;63015;-62
2023/05/22 12:07:09;;;;;;;;;;;;;;;19.39;64.42;96706.77;602646;235;66190;-62
2023/05/22 12:09:37;;;;;;;;;;;;;;;19.39;64.30;96698.77;602565;235;66417;-62
2023/05/22 12:12:05;;;;;;;;;;;;;;;19.40;64.24;96700.39;602568;235;62941;-62
2023/05/22 12:14:33;;;;;;;;;;;;;;;19.39;64.42;96693.45;602638;235;66403;-62
2023/05/22 12:17:03;;;;;;;;;;;;;;;19.39;64.26;96691.58;602519;235;66515;-61
2023/05/22 12:19:31;;;;;;;;;;;;;;;19.40;64.30;96693.19;602523;235;65831;-61
2023/05/22 12:21:59;;;;;;;;;;;;;;;19.40;64.07;96687.06;602533;235;68590;-62
2023/05/22 12:24:26;;;;;;;;;;;;;;;19.40;64.03;96679.08;602521;235;69424;-62
2023/05/22 12:26:54;;;;;;;;;;;;;;;19.39;63.86;96682.78;602566;235;62677;-62
2023/05/22 12:29:22;;;;;;;;;;;;;;;19.39;63.70;96678.25;602661;235;66176;-62
2023/05/22 12:31:51;;;;;;;;;;;;;;;19.40;63.54;96679.08;602640;235;66360;-61
2023/05/22 12:34:19;;;;;;;;;;;;;;;19.40;63.49;96687.86;602608;235;62925;-62
2023/05/22 12:36:46;;;;;;;;;;;;;;;19.41;63.68;96680.66;602563;235;68318;-61
2023/05/22 12:39:17;;;;;;;;;;;;;;;19.41;63.78;96678.00;602578;235;49443;-62
2023/05/22 12:41:46;;;;;;;;;;;;;;;19.42;63.75;96674.25;602556;235;65079;-62
2023/05/22 12:44:15;;;;;;;;;;;;;;;19.41;63.46;96672.67;602643;235;68434;-62
2023/05/22 12:46:44;;;;;;;;;;;;;;;19.41;63.46;96670.00;602439;235;68507;-63
2023/05/22 12:49:11;;;;;;;;;;;;;;;19.41;63.33;96676.13;602432;235;64870;-63
2023/05/22 12:51:39;;;;;;;;;;;;;;;19.41;63.02;96678.79;602583;235;66179;-62
2023/05/22 12:54:08;;;;;;;;;;;;;;;19.42;63.02;96679.58;602409;235;46925;-63
2023/05/22 12:56:36;;;;;;;;;;;;;;;19.41;62.90;96678.00;602438;235;65040;-63
2023/05/22 12:59:03;;;;;;;;;;;;;;;19.41;62.99;96673.46;602544;235;68598;-63